sensor_id;sensor_type;location;lat;lon;timestamp;temperature;humidity
12977;DHT22;6553;48.412;9.514;2023-02-27T00:01:03;18.90;51.20
12977;DHT22;6553;48.412;9.514;2023-02-27T00:03:29;18.90;51.20
12977;DHT22;6553;48.412;9.514;2023-02-27T00:05:55;18.90;51.10
12977;DHT22;6553;48.412;9.514;2023-02-27T00:08:21;18.90;51.10
12977;DHT22;6553;48.412;9.514;2023-02-27T00:10:47;18.90;51.10
12977;DHT22;6553;48.412;9.514;2023-02-27T00:13:13;18.90;51.00
12977;DHT22;6553;48.412;9.514;2023-02-27T00:15:39;18.90;51.00
12977;DHT22;6553;48.412;9.514;2023-02-27T00:18:06;18.90;51.00
12977;DHT22;6553;48.412;9.514;2023-02-27T00:20:32;18.90;51.00
12977;DHT22;6553;48.412;9.514;2023-02-27T00:23:04;18.90;51.00
12977;DHT22;6553;48.412;9.514;2023-02-27T00:25:31;18.90;50.90
12977;DHT22;6553;48.412;9.514;2023-02-27T00:27:58;18.90;51.00
12977;DHT22;6553;48.412;9.514;2023-02-27T00:30:24;18.90;51.00
12977;DHT22;6553;48.412;9.514;2023-02-27T00:32:52;18.90;50.90
12977;DHT22;6553;48.412;9.514;2023-02-27T00:35:18;18.90;50.90
12977;DHT22;6553;48.412;9.514;2023-02-27T00:37:45;18.90;50.90
12977;DHT22;6553;48.412;9.514;2023-02-27T00:40:11;18.90;50.90
12977;DHT22;6553;48.412;9.514;2023-02-27T00:42:37;19.00;51.00
12977;DHT22;6553;48.412;9.514;2023-02-27T00:45:04;18.90;50.90
12977;DHT22;6553;48.412;9.514;2023-02-27T00:47:32;18.90;50.90
12977;DHT22;6553;48.412;9.514;2023-02-27T00:49:59;19.00;51.00
12977;DHT22;6553;48.412;9.514;2023-02-27T00:52:25;19.00;51.00
12977;DHT22;6553;48.412;9.514;2023-02-27T00:54:52;19.00;51.00
12977;DHT22;6553;48.412;9.514;2023-02-27T00:57:18;18.90;50.90
12977;DHT22;6553;48.412;9.514;2023-02-27T00:59:44;18.90;50.80
12977;DHT22;6553;48.412;9.514;2023-02-27T01:02:12;18.90;50.80
12977;DHT22;6553;48.412;9.514;2023-02-27T01:04:38;18.90;50.80
12977;DHT22;6553;48.412;9.514;2023-02-27T01:07:06;18.90;50.80
12977;DHT22;6553;48.412;9.514;2023-02-27T01:09:32;18.90;50.80
12977;DHT22;6553;48.412;9.514;2023-02-27T01:11:58;18.90;50.80
12977;DHT22;6553;48.412;9.514;2023-02-27T01:14:24;19.00;50.80
12977;DHT22;6553;48.412;9.514;2023-02-27T01:16:50;19.00;50.80
12977;DHT22;6553;48.412;9.514;2023-02-27T01:19:16;18.90;50.70
12977;DHT22;6553;48.412;9.514;2023-02-27T01:21:42;19.00;50.80
12977;DHT22;6553;48.412;9.514;2023-02-27T01:24:09;18.90;50.70
12977;DHT22;6553;48.412;9.514;2023-02-27T01:26:35;18.90;50.80
12977;DHT22;6553;48.412;9.514;2023-02-27T01:29:01;18.90;50.70
12977;DHT22;6553;48.412;9.514;2023-02-27T01:31:27;18.90;50.60
12977;DHT22;6553;48.412;9.514;2023-02-27T01:33:53;18.90;50.70
12977;DHT22;6553;48.412;9.514;2023-02-27T01:36:19;18.90;50.70
12977;DHT22;6553;48.412;9.514;2023-02-27T01:38:45;18.90;50.60
12977;DHT22;6553;48.412;9.514;2023-02-27T01:41:11;18.90;50.50
12977;DHT22;6553;48.412;9.514;2023-02-27T01:43:58;19.00;50.80
12977;DHT22;6553;48.412;9.514;2023-02-27T01:46:27;18.90;50.60
12977;DHT22;6553;48.412;9.514;2023-02-27T01:48:58;18.90;50.40
12977;DHT22;6553;48.412;9.514;2023-02-27T01:51:49;19.00;50.50
12977;DHT22;6553;48.412;9.514;2023-02-27T01:54:22;18.90;50.40
12977;DHT22;6553;48.412;9.514;2023-02-27T01:56:51;18.90;50.40
12977;DHT22;6553;48.412;9.514;2023-02-27T01:59:17;18.90;50.40
12977;DHT22;6553;48.412;9.514;2023-02-27T02:01:44;18.90;50.40
12977;DHT22;6553;48.412;9.514;2023-02-27T02:07:09;19.00;51.10
12977;DHT22;6553;48.412;9.514;2023-02-27T02:09:47;18.90;50.40
12977;DHT22;6553;48.412;9.514;2023-02-27T02:12:18;18.90;50.40
12977;DHT22;6553;48.412;9.514;2023-02-27T02:14:47;18.90;50.40
12977;DHT22;6553;48.412;9.514;2023-02-27T02:17:17;18.90;50.40
12977;DHT22;6553;48.412;9.514;2023-02-27T02:20:14;18.90;50.40
12977;DHT22;6553;48.412;9.514;2023-02-27T02:32:14;18.90;50.40
12977;DHT22;6553;48.412;9.514;2023-02-27T02:35:37;18.90;50.40
12977;DHT22;6553;48.412;9.514;2023-02-27T02:38:19;18.90;50.40
12977;DHT22;6553;48.412;9.514;2023-02-27T02:43:40;18.90;50.40
12977;DHT22;6553;48.412;9.514;2023-02-27T02:49:09;18.90;50.40
12977;DHT22;6553;48.412;9.514;2023-02-27T02:51:48;18.90;50.40
12977;DHT22;6553;48.412;9.514;2023-02-27T02:54:33;18.90;50.40
12977;DHT22;6553;48.412;9.514;2023-02-27T02:57:20;18.90;50.40
12977;DHT22;6553;48.412;9.514;2023-02-27T03:00:00;18.90;50.40
12977;DHT22;6553;48.412;9.514;2023-02-27T03:02:42;18.90;50.30
12977;DHT22;6553;48.412;9.514;2023-02-27T03:05:30;18.90;50.40
12977;DHT22;6553;48.412;9.514;2023-02-27T03:08:03;18.90;50.40
12977;DHT22;6553;48.412;9.514;2023-02-27T03:10:36;18.90;50.40
12977;DHT22;6553;48.412;9.514;2023-02-27T03:13:35;18.90;50.20
12977;DHT22;6553;48.412;9.514;2023-02-27T03:16:14;18.90;50.10
12977;DHT22;6553;48.412;9.514;2023-02-27T03:21:45;18.90;50.30
12977;DHT22;6553;48.412;9.514;2023-02-27T03:24:19;18.90;50.20
12977;DHT22;6553;48.412;9.514;2023-02-27T03:26:51;18.90;50.20
12977;DHT22;6553;48.412;9.514;2023-02-27T03:29:28;18.90;50.20
12977;DHT22;6553;48.412;9.514;2023-02-27T03:32:12;18.90;50.10
12977;DHT22;6553;48.412;9.514;2023-02-27T03:34:44;18.90;50.00
12977;DHT22;6553;48.412;9.514;2023-02-27T03:40:42;18.90;50.00
12977;DHT22;6553;48.412;9.514;2023-02-27T03:43:26;18.90;50.10
12977;DHT22;6553;48.412;9.514;2023-02-27T03:46:15;18.90;50.00
12977;DHT22;6553;48.412;9.514;2023-02-27T03:48:44;18.90;50.00
12977;DHT22;6553;48.412;9.514;2023-02-27T03:51:12;18.90;50.00
12977;DHT22;6553;48.412;9.514;2023-02-27T03:56:13;18.90;49.90
12977;DHT22;6553;48.412;9.514;2023-02-27T03:58:43;18.90;49.90
12977;DHT22;6553;48.412;9.514;2023-02-27T04:01:10;18.90;49.90
12977;DHT22;6553;48.412;9.514;2023-02-27T04:03:42;18.90;49.90
12977;DHT22;6553;48.412;9.514;2023-02-27T04:06:17;18.90;50.00
12977;DHT22;6553;48.412;9.514;2023-02-27T04:09:42;19.00;50.10
12977;DHT22;6553;48.412;9.514;2023-02-27T04:27:36;18.90;49.90
12977;DHT22;6553;48.412;9.514;2023-02-27T04:39:08;18.90;49.80
12977;DHT22;6553;48.412;9.514;2023-02-27T04:41:58;18.90;49.90
12977;DHT22;6553;48.412;9.514;2023-02-27T04:44:33;18.90;49.90
12977;DHT22;6553;48.412;9.514;2023-02-27T04:47:04;18.90;49.80
12977;DHT22;6553;48.412;9.514;2023-02-27T04:52:42;18.90;49.80
12977;DHT22;6553;48.412;9.514;2023-02-27T04:55:21;18.90;49.80
12977;DHT22;6553;48.412;9.514;2023-02-27T04:58:01;18.90;49.80
12977;DHT22;6553;48.412;9.514;2023-02-27T05:00:30;18.90;49.80
12977;DHT22;6553;48.412;9.514;2023-02-27T05:03:04;18.90;49.80
12977;DHT22;6553;48.412;9.514;2023-02-27T05:05:37;18.90;49.80
12977;DHT22;6553;48.412;9.514;2023-02-27T05:08:11;18.90;49.80
12977;DHT22;6553;48.412;9.514;2023-02-27T05:10:50;18.90;49.80
12977;DHT22;6553;48.412;9.514;2023-02-27T05:13:27;18.90;49.80
12977;DHT22;6553;48.412;9.514;2023-02-27T05:16:06;19.00;49.80
12977;DHT22;6553;48.412;9.514;2023-02-27T05:18:37;18.90;49.80
12977;DHT22;6553;48.412;9.514;2023-02-27T05:21:23;18.90;49.70
12977;DHT22;6553;48.412;9.514;2023-02-27T05:27:04;19.00;50.30
12977;DHT22;6553;48.412;9.514;2023-02-27T05:29:45;18.90;50.20
12977;DHT22;6553;48.412;9.514;2023-02-27T05:32:21;19.00;50.00
12977;DHT22;6553;48.412;9.514;2023-02-27T05:40:40;18.90;50.00
12977;DHT22;6553;48.412;9.514;2023-02-27T05:43:25;18.90;49.90
12977;DHT22;6553;48.412;9.514;2023-02-27T05:46:01;18.90;49.90
12977;DHT22;6553;48.412;9.514;2023-02-27T05:48:37;18.90;49.80
12977;DHT22;6553;48.412;9.514;2023-02-27T05:51:08;18.90;49.80
12977;DHT22;6553;48.412;9.514;2023-02-27T05:53:42;18.90;49.90
12977;DHT22;6553;48.412;9.514;2023-02-27T05:56:15;19.00;49.90
12977;DHT22;6553;48.412;9.514;2023-02-27T05:58:51;18.90;49.80
12977;DHT22;6553;48.412;9.514;2023-02-27T06:01:21;18.90;49.80
12977;DHT22;6553;48.412;9.514;2023-02-27T06:03:47;18.90;49.80
12977;DHT22;6553;48.412;9.514;2023-02-27T06:06:15;18.90;49.80
12977;DHT22;6553;48.412;9.514;2023-02-27T06:08:43;18.90;49.70
12977;DHT22;6553;48.412;9.514;2023-02-27T06:11:11;18.90;49.70
12977;DHT22;6553;48.412;9.514;2023-02-27T06:13:37;18.90;49.60
12977;DHT22;6553;48.412;9.514;2023-02-27T06:16:04;18.90;49.60
12977;DHT22;6553;48.412;9.514;2023-02-27T06:18:31;18.90;49.70
12977;DHT22;6553;48.412;9.514;2023-02-27T06:20:57;19.00;49.70
12977;DHT22;6553;48.412;9.514;2023-02-27T06:23:23;18.90;49.60
12977;DHT22;6553;48.412;9.514;2023-02-27T06:25:49;18.90;49.60
12977;DHT22;6553;48.412;9.514;2023-02-27T06:28:14;18.90;49.60
12977;DHT22;6553;48.412;9.514;2023-02-27T06:30:40;19.00;49.70
12977;DHT22;6553;48.412;9.514;2023-02-27T06:33:06;19.00;49.70
12977;DHT22;6553;48.412;9.514;2023-02-27T06:35:32;19.00;49.70
12977;DHT22;6553;48.412;9.514;2023-02-27T06:37:58;19.00;49.60
12977;DHT22;6553;48.412;9.514;2023-02-27T06:40:24;19.00;49.60
12977;DHT22;6553;48.412;9.514;2023-02-27T06:42:50;19.00;49.60
12977;DHT22;6553;48.412;9.514;2023-02-27T06:45:17;19.00;49.60
12977;DHT22;6553;48.412;9.514;2023-02-27T06:47:44;19.00;49.70
12977;DHT22;6553;48.412;9.514;2023-02-27T06:50:11;19.00;49.60
12977;DHT22;6553;48.412;9.514;2023-02-27T06:52:38;18.90;49.60
12977;DHT22;6553;48.412;9.514;2023-02-27T06:55:06;19.00;49.60
12977;DHT22;6553;48.412;9.514;2023-02-27T06:57:32;19.00;49.50
12977;DHT22;6553;48.412;9.514;2023-02-27T06:59:59;18.90;49.60
12977;DHT22;6553;48.412;9.514;2023-02-27T07:02:25;19.00;49.60
12977;DHT22;6553;48.412;9.514;2023-02-27T07:04:51;19.00;49.50
12977;DHT22;6553;48.412;9.514;2023-02-27T07:07:18;19.00;49.50
12977;DHT22;6553;48.412;9.514;2023-02-27T07:09:44;19.00;49.60
12977;DHT22;6553;48.412;9.514;2023-02-27T07:12:10;19.00;49.50
12977;DHT22;6553;48.412;9.514;2023-02-27T07:14:36;19.00;49.50
12977;DHT22;6553;48.412;9.514;2023-02-27T07:17:03;19.00;49.50
12977;DHT22;6553;48.412;9.514;2023-02-27T07:19:29;19.00;49.60
12977;DHT22;6553;48.412;9.514;2023-02-27T07:21:56;19.00;49.60
12977;DHT22;6553;48.412;9.514;2023-02-27T07:24:22;19.00;49.60
12977;DHT22;6553;48.412;9.514;2023-02-27T07:26:48;19.00;49.50
12977;DHT22;6553;48.412;9.514;2023-02-27T07:29:14;19.00;49.50
12977;DHT22;6553;48.412;9.514;2023-02-27T07:31:40;19.00;49.50
12977;DHT22;6553;48.412;9.514;2023-02-27T07:34:05;19.00;49.40
12977;DHT22;6553;48.412;9.514;2023-02-27T07:36:32;19.10;49.40
12977;DHT22;6553;48.412;9.514;2023-02-27T07:38:58;19.10;49.50
12977;DHT22;6553;48.412;9.514;2023-02-27T07:41:24;19.00;49.30
12977;DHT22;6553;48.412;9.514;2023-02-27T07:43:50;19.10;49.50
12977;DHT22;6553;48.412;9.514;2023-02-27T07:46:16;19.10;49.50
12977;DHT22;6553;48.412;9.514;2023-02-27T07:48:42;19.10;49.50
12977;DHT22;6553;48.412;9.514;2023-02-27T07:51:08;19.10;50.00
12977;DHT22;6553;48.412;9.514;2023-02-27T07:53:34;19.10;49.40
12977;DHT22;6553;48.412;9.514;2023-02-27T07:55:59;19.10;49.40
12977;DHT22;6553;48.412;9.514;2023-02-27T07:58:25;19.10;49.40
12977;DHT22;6553;48.412;9.514;2023-02-27T08:00:52;19.10;49.30
12977;DHT22;6553;48.412;9.514;2023-02-27T08:03:19;19.20;49.30
12977;DHT22;6553;48.412;9.514;2023-02-27T08:05:44;19.20;49.30
12977;DHT22;6553;48.412;9.514;2023-02-27T08:08:10;19.20;49.80
12977;DHT22;6553;48.412;9.514;2023-02-27T08:10:36;19.20;49.20
12977;DHT22;6553;48.412;9.514;2023-02-27T08:13:02;19.20;49.10
12977;DHT22;6553;48.412;9.514;2023-02-27T08:15:27;19.30;49.20
12977;DHT22;6553;48.412;9.514;2023-02-27T08:17:53;19.30;49.10
12977;DHT22;6553;48.412;9.514;2023-02-27T08:20:19;19.30;49.10
12977;DHT22;6553;48.412;9.514;2023-02-27T08:22:48;19.30;49.10
12977;DHT22;6553;48.412;9.514;2023-02-27T08:25:15;19.40;49.10
12977;DHT22;6553;48.412;9.514;2023-02-27T08:27:41;19.30;49.00
12977;DHT22;6553;48.412;9.514;2023-02-27T08:30:08;19.40;49.00
12977;DHT22;6553;48.412;9.514;2023-02-27T08:32:35;19.30;48.90
12977;DHT22;6553;48.412;9.514;2023-02-27T08:35:01;19.30;48.90
12977;DHT22;6553;48.412;9.514;2023-02-27T08:37:28;19.30;49.00
12977;DHT22;6553;48.412;9.514;2023-02-27T08:39:53;19.40;48.90
12977;DHT22;6553;48.412;9.514;2023-02-27T08:42:19;19.40;48.90
12977;DHT22;6553;48.412;9.514;2023-02-27T08:44:45;19.40;48.90
12977;DHT22;6553;48.412;9.514;2023-02-27T08:47:11;19.40;48.90
12977;DHT22;6553;48.412;9.514;2023-02-27T08:49:37;19.40;48.90
12977;DHT22;6553;48.412;9.514;2023-02-27T08:52:03;19.40;48.90
12977;DHT22;6553;48.412;9.514;2023-02-27T08:54:30;19.40;48.90
12977;DHT22;6553;48.412;9.514;2023-02-27T08:56:56;19.40;48.80
12977;DHT22;6553;48.412;9.514;2023-02-27T08:59:22;19.40;48.70
12977;DHT22;6553;48.412;9.514;2023-02-27T09:01:48;19.40;48.70
12977;DHT22;6553;48.412;9.514;2023-02-27T09:04:14;19.40;48.60
12977;DHT22;6553;48.412;9.514;2023-02-27T09:06:40;19.40;48.70
12977;DHT22;6553;48.412;9.514;2023-02-27T09:09:06;19.40;48.60
12977;DHT22;6553;48.412;9.514;2023-02-27T09:11:32;19.50;48.70
12977;DHT22;6553;48.412;9.514;2023-02-27T09:13:58;19.40;48.60
12977;DHT22;6553;48.412;9.514;2023-02-27T09:16:24;19.40;48.50
12977;DHT22;6553;48.412;9.514;2023-02-27T09:18:50;19.50;48.60
12977;DHT22;6553;48.412;9.514;2023-02-27T09:21:17;19.50;48.60
12977;DHT22;6553;48.412;9.514;2023-02-27T09:23:43;19.50;48.60
12977;DHT22;6553;48.412;9.514;2023-02-27T09:26:09;19.50;48.70
12977;DHT22;6553;48.412;9.514;2023-02-27T09:28:35;19.50;48.60
12977;DHT22;6553;48.412;9.514;2023-02-27T09:33:38;19.50;48.60
12977;DHT22;6553;48.412;9.514;2023-02-27T09:36:05;19.50;48.60
12977;DHT22;6553;48.412;9.514;2023-02-27T09:38:33;19.50;48.50
12977;DHT22;6553;48.412;9.514;2023-02-27T09:41:00;19.50;48.60
12977;DHT22;6553;48.412;9.514;2023-02-27T09:43:35;19.50;48.50
12977;DHT22;6553;48.412;9.514;2023-02-27T09:46:05;19.50;48.40
12977;DHT22;6553;48.412;9.514;2023-02-27T09:48:39;19.50;48.40
12977;DHT22;6553;48.412;9.514;2023-02-27T09:51:10;19.50;48.20
12977;DHT22;6553;48.412;9.514;2023-02-27T09:53:41;19.50;48.40
12977;DHT22;6553;48.412;9.514;2023-02-27T09:56:22;19.50;48.30
12977;DHT22;6553;48.412;9.514;2023-02-27T10:08:13;19.50;48.30
12977;DHT22;6553;48.412;9.514;2023-02-27T10:11:04;19.50;48.30
12977;DHT22;6553;48.412;9.514;2023-02-27T10:16:25;19.50;48.20
12977;DHT22;6553;48.412;9.514;2023-02-27T10:21:38;19.50;48.10
12977;DHT22;6553;48.412;9.514;2023-02-27T10:27:19;19.50;48.10
12977;DHT22;6553;48.412;9.514;2023-02-27T10:29:46;19.50;48.10
12977;DHT22;6553;48.412;9.514;2023-02-27T10:32:19;19.50;48.10
12977;DHT22;6553;48.412;9.514;2023-02-27T10:35:19;19.50;48.20
12977;DHT22;6553;48.412;9.514;2023-02-27T10:38:13;19.50;48.00
12977;DHT22;6553;48.412;9.514;2023-02-27T10:40:43;19.50;48.00
12977;DHT22;6553;48.412;9.514;2023-02-27T10:43:14;19.50;48.00
12977;DHT22;6553;48.412;9.514;2023-02-27T10:45:43;19.50;47.90
12977;DHT22;6553;48.412;9.514;2023-02-27T10:48:10;19.50;48.00
12977;DHT22;6553;48.412;9.514;2023-02-27T10:50:40;19.50;47.90
12977;DHT22;6553;48.412;9.514;2023-02-27T10:53:25;19.50;47.90
12977;DHT22;6553;48.412;9.514;2023-02-27T10:56:04;19.50;47.80
12977;DHT22;6553;48.412;9.514;2023-02-27T10:58:36;19.50;47.70
12977;DHT22;6553;48.412;9.514;2023-02-27T11:01:10;19.50;47.70
12977;DHT22;6553;48.412;9.514;2023-02-27T11:03:42;19.50;47.80
12977;DHT22;6553;48.412;9.514;2023-02-27T11:06:21;19.50;47.70
12977;DHT22;6553;48.412;9.514;2023-02-27T11:09:18;19.50;47.70
12977;DHT22;6553;48.412;9.514;2023-02-27T11:11:53;19.50;47.80
12977;DHT22;6553;48.412;9.514;2023-02-27T11:16:57;19.50;47.80
12977;DHT22;6553;48.412;9.514;2023-02-27T11:19:36;19.50;47.90
12977;DHT22;6553;48.412;9.514;2023-02-27T11:24:43;19.60;47.80
12977;DHT22;6553;48.412;9.514;2023-02-27T11:27:22;19.60;47.80
12977;DHT22;6553;48.412;9.514;2023-02-27T11:32:42;19.60;47.80
12977;DHT22;6553;48.412;9.514;2023-02-27T11:35:29;19.60;47.80
12977;DHT22;6553;48.412;9.514;2023-02-27T11:38:03;19.60;47.80
12977;DHT22;6553;48.412;9.514;2023-02-27T11:40:39;19.60;47.80
12977;DHT22;6553;48.412;9.514;2023-02-27T11:43:30;19.60;47.80
12977;DHT22;6553;48.412;9.514;2023-02-27T11:46:03;19.50;47.70
12977;DHT22;6553;48.412;9.514;2023-02-27T11:48:55;19.50;47.80
12977;DHT22;6553;48.412;9.514;2023-02-27T11:51:53;19.50;47.70
12977;DHT22;6553;48.412;9.514;2023-02-27T11:54:41;19.50;47.80
12977;DHT22;6553;48.412;9.514;2023-02-27T11:57:20;19.50;47.70
12977;DHT22;6553;48.412;9.514;2023-02-27T12:03:11;19.50;47.70
12977;DHT22;6553;48.412;9.514;2023-02-27T12:05:50;19.50;47.70
12977;DHT22;6553;48.412;9.514;2023-02-27T12:11:06;19.50;47.70
12977;DHT22;6553;48.412;9.514;2023-02-27T12:13:58;19.50;48.20
12977;DHT22;6553;48.412;9.514;2023-02-27T12:16:45;19.50;47.60
12977;DHT22;6553;48.412;9.514;2023-02-27T12:22:01;19.50;47.70
12977;DHT22;6553;48.412;9.514;2023-02-27T12:24:38;19.50;47.70
12977;DHT22;6553;48.412;9.514;2023-02-27T12:30:26;19.50;47.60
12977;DHT22;6553;48.412;9.514;2023-02-27T12:33:12;19.50;47.60
12977;DHT22;6553;48.412;9.514;2023-02-27T12:35:51;19.50;47.70
12977;DHT22;6553;48.412;9.514;2023-02-27T12:38:23;19.50;48.30
12977;DHT22;6553;48.412;9.514;2023-02-27T12:41:14;19.50;47.60
12977;DHT22;6553;48.412;9.514;2023-02-27T12:50:09;19.50;48.20
12977;DHT22;6553;48.412;9.514;2023-02-27T12:53:16;19.60;47.70
12977;DHT22;6553;48.412;9.514;2023-02-27T12:55:56;19.50;47.60
12977;DHT22;6553;48.412;9.514;2023-02-27T12:58:41;19.50;47.60
12977;DHT22;6553;48.412;9.514;2023-02-27T13:01:41;19.50;47.50
12977;DHT22;6553;48.412;9.514;2023-02-27T13:04:47;19.50;47.50
12977;DHT22;6553;48.412;9.514;2023-02-27T13:13:39;19.50;47.50
12977;DHT22;6553;48.412;9.514;2023-02-27T13:16:16;19.50;47.60
12977;DHT22;6553;48.412;9.514;2023-02-27T13:19:02;19.50;47.60
12977;DHT22;6553;48.412;9.514;2023-02-27T13:24:30;19.50;47.50
12977;DHT22;6553;48.412;9.514;2023-02-27T13:27:03;19.50;47.50
12977;DHT22;6553;48.412;9.514;2023-02-27T13:30:26;19.60;49.40
12977;DHT22;6553;48.412;9.514;2023-02-27T13:35:16;19.60;51.80
12977;DHT22;6553;48.412;9.514;2023-02-27T13:37:57;19.70;51.40
12977;DHT22;6553;48.412;9.514;2023-02-27T13:46:00;19.70;52.10
12977;DHT22;6553;48.412;9.514;2023-02-27T13:48:37;19.80;52.10
12977;DHT22;6553;48.412;9.514;2023-02-27T13:51:08;19.80;52.30
12977;DHT22;6553;48.412;9.514;2023-02-27T14:04:51;19.80;52.80
12977;DHT22;6553;48.412;9.514;2023-02-27T14:07:32;19.80;53.00
12977;DHT22;6553;48.412;9.514;2023-02-27T14:10:21;19.80;52.80
12977;DHT22;6553;48.412;9.514;2023-02-27T14:12:53;19.80;53.10
12977;DHT22;6553;48.412;9.514;2023-02-27T14:17:52;19.80;53.20
12977;DHT22;6553;48.412;9.514;2023-02-27T14:25:54;19.80;52.90
12977;DHT22;6553;48.412;9.514;2023-02-27T14:28:49;19.80;52.60
12977;DHT22;6553;48.412;9.514;2023-02-27T14:31:34;19.80;52.70
12977;DHT22;6553;48.412;9.514;2023-02-27T14:34:03;19.80;52.90
12977;DHT22;6553;48.412;9.514;2023-02-27T14:36:39;19.80;52.90
12977;DHT22;6553;48.412;9.514;2023-02-27T14:39:20;19.80;52.80
12977;DHT22;6553;48.412;9.514;2023-02-27T14:41:58;19.80;52.90
12977;DHT22;6553;48.412;9.514;2023-02-27T14:44:40;19.80;52.70
12977;DHT22;6553;48.412;9.514;2023-02-27T14:47:26;19.80;52.70
12977;DHT22;6553;48.412;9.514;2023-02-27T14:49:56;19.80;52.70
12977;DHT22;6553;48.412;9.514;2023-02-27T14:54:50;19.80;52.70
12977;DHT22;6553;48.412;9.514;2023-02-27T14:57:22;19.80;52.70
12977;DHT22;6553;48.412;9.514;2023-02-27T14:59:51;19.80;52.60
12977;DHT22;6553;48.412;9.514;2023-02-27T15:07:33;19.80;52.80
12977;DHT22;6553;48.412;9.514;2023-02-27T15:10:02;19.80;52.80
12977;DHT22;6553;48.412;9.514;2023-02-27T15:12:32;19.80;52.90
12977;DHT22;6553;48.412;9.514;2023-02-27T15:15:02;19.80;52.80
12977;DHT22;6553;48.412;9.514;2023-02-27T15:17:37;19.80;52.80
12977;DHT22;6553;48.412;9.514;2023-02-27T15:20:29;19.80;52.70
12977;DHT22;6553;48.412;9.514;2023-02-27T15:22:59;19.80;52.70
12977;DHT22;6553;48.412;9.514;2023-02-27T15:25:30;19.70;52.50
12977;DHT22;6553;48.412;9.514;2023-02-27T15:28:02;19.80;52.70
12977;DHT22;6553;48.412;9.514;2023-02-27T15:30:30;19.80;52.80
12977;DHT22;6553;48.412;9.514;2023-02-27T15:32:57;19.80;52.80
12977;DHT22;6553;48.412;9.514;2023-02-27T15:35:28;19.80;52.60
12977;DHT22;6553;48.412;9.514;2023-02-27T15:37:59;19.80;52.60
12977;DHT22;6553;48.412;9.514;2023-02-27T15:40:31;19.70;52.60
12977;DHT22;6553;48.412;9.514;2023-02-27T15:42:59;19.70;52.50
12977;DHT22;6553;48.412;9.514;2023-02-27T15:45:44;19.70;52.60
12977;DHT22;6553;48.412;9.514;2023-02-27T15:48:14;19.80;52.60
12977;DHT22;6553;48.412;9.514;2023-02-27T15:50:45;19.70;52.50
12977;DHT22;6553;48.412;9.514;2023-02-27T15:53:17;19.70;52.50
12977;DHT22;6553;48.412;9.514;2023-02-27T15:55:50;19.70;52.50
12977;DHT22;6553;48.412;9.514;2023-02-27T15:58:28;19.70;52.60
12977;DHT22;6553;48.412;9.514;2023-02-27T16:01:00;19.80;52.90
12977;DHT22;6553;48.412;9.514;2023-02-27T16:03:33;19.70;52.80
12977;DHT22;6553;48.412;9.514;2023-02-27T16:06:14;19.70;52.70
12977;DHT22;6553;48.412;9.514;2023-02-27T16:08:51;19.70;52.70
12977;DHT22;6553;48.412;9.514;2023-02-27T16:11:33;19.70;52.70
12977;DHT22;6553;48.412;9.514;2023-02-27T16:14:01;19.70;52.60
12977;DHT22;6553;48.412;9.514;2023-02-27T16:16:31;19.70;52.60
12977;DHT22;6553;48.412;9.514;2023-02-27T16:24:42;19.70;53.00
12977;DHT22;6553;48.412;9.514;2023-02-27T16:27:25;19.70;52.90
12977;DHT22;6553;48.412;9.514;2023-02-27T16:29:55;19.70;52.70
12977;DHT22;6553;48.412;9.514;2023-02-27T16:32:39;19.70;52.60
12977;DHT22;6553;48.412;9.514;2023-02-27T16:35:19;19.70;52.60
12977;DHT22;6553;48.412;9.514;2023-02-27T16:37:48;19.70;52.70
12977;DHT22;6553;48.412;9.514;2023-02-27T16:42:47;19.60;52.40
12977;DHT22;6553;48.412;9.514;2023-02-27T16:45:22;19.70;52.50
12977;DHT22;6553;48.412;9.514;2023-02-27T16:47:56;19.70;52.50
12977;DHT22;6553;48.412;9.514;2023-02-27T16:50:26;19.60;52.40
12977;DHT22;6553;48.412;9.514;2023-02-27T16:52:58;19.60;52.40
12977;DHT22;6553;48.412;9.514;2023-02-27T16:55:25;19.60;52.30
12977;DHT22;6553;48.412;9.514;2023-02-27T16:57:51;19.60;52.30
12977;DHT22;6553;48.412;9.514;2023-02-27T17:00:18;19.60;52.40
12977;DHT22;6553;48.412;9.514;2023-02-27T17:02:45;19.60;52.40
12977;DHT22;6553;48.412;9.514;2023-02-27T17:05:14;19.60;52.30
12977;DHT22;6553;48.412;9.514;2023-02-27T17:07:40;19.60;52.20
12977;DHT22;6553;48.412;9.514;2023-02-27T17:10:06;19.60;52.40
12977;DHT22;6553;48.412;9.514;2023-02-27T17:12:33;19.60;52.60
12977;DHT22;6553;48.412;9.514;2023-02-27T17:14:59;19.60;52.40
12977;DHT22;6553;48.412;9.514;2023-02-27T17:17:25;19.60;52.40
12977;DHT22;6553;48.412;9.514;2023-02-27T17:19:50;19.60;52.30
12977;DHT22;6553;48.412;9.514;2023-02-27T17:22:16;19.60;52.30
12977;DHT22;6553;48.412;9.514;2023-02-27T17:24:42;19.60;52.60
12977;DHT22;6553;48.412;9.514;2023-02-27T17:27:08;19.60;52.40
12977;DHT22;6553;48.412;9.514;2023-02-27T17:29:36;19.60;52.50
12977;DHT22;6553;48.412;9.514;2023-02-27T17:32:03;19.60;52.50
12977;DHT22;6553;48.412;9.514;2023-02-27T17:34:28;19.60;52.40
12977;DHT22;6553;48.412;9.514;2023-02-27T17:36:54;19.60;52.40
12977;DHT22;6553;48.412;9.514;2023-02-27T17:39:20;19.60;52.60
12977;DHT22;6553;48.412;9.514;2023-02-27T17:41:46;19.60;52.30
12977;DHT22;6553;48.412;9.514;2023-02-27T17:44:12;19.60;52.40
12977;DHT22;6553;48.412;9.514;2023-02-27T17:46:39;19.60;52.30
12977;DHT22;6553;48.412;9.514;2023-02-27T17:49:05;19.60;52.30
12977;DHT22;6553;48.412;9.514;2023-02-27T17:51:31;19.60;52.30
12977;DHT22;6553;48.412;9.514;2023-02-27T17:54:01;19.60;52.30
12977;DHT22;6553;48.412;9.514;2023-02-27T17:56:28;19.60;52.30
12977;DHT22;6553;48.412;9.514;2023-02-27T17:58:54;19.60;52.30
12977;DHT22;6553;48.412;9.514;2023-02-27T18:01:21;19.60;52.30
12977;DHT22;6553;48.412;9.514;2023-02-27T18:03:51;19.60;52.20
12977;DHT22;6553;48.412;9.514;2023-02-27T18:06:18;19.60;52.30
12977;DHT22;6553;48.412;9.514;2023-02-27T18:08:45;19.60;52.20
12977;DHT22;6553;48.412;9.514;2023-02-27T18:11:14;19.60;52.30
12977;DHT22;6553;48.412;9.514;2023-02-27T18:13:43;19.60;52.20
12977;DHT22;6553;48.412;9.514;2023-02-27T18:16:09;19.60;52.20
12977;DHT22;6553;48.412;9.514;2023-02-27T18:18:40;19.60;52.20
12977;DHT22;6553;48.412;9.514;2023-02-27T18:21:11;19.60;52.30
12977;DHT22;6553;48.412;9.514;2023-02-27T18:23:39;19.60;52.30
12977;DHT22;6553;48.412;9.514;2023-02-27T18:26:05;19.60;52.20
12977;DHT22;6553;48.412;9.514;2023-02-27T18:28:32;19.60;52.20
12977;DHT22;6553;48.412;9.514;2023-02-27T18:30:59;19.60;52.30
12977;DHT22;6553;48.412;9.514;2023-02-27T18:33:25;19.60;52.30
12977;DHT22;6553;48.412;9.514;2023-02-27T18:35:52;19.60;52.40
12977;DHT22;6553;48.412;9.514;2023-02-27T18:38:18;19.60;52.40
12977;DHT22;6553;48.412;9.514;2023-02-27T18:40:44;19.60;52.30
12977;DHT22;6553;48.412;9.514;2023-02-27T18:43:10;19.60;53.00
12977;DHT22;6553;48.412;9.514;2023-02-27T18:45:38;19.60;52.40
12977;DHT22;6553;48.412;9.514;2023-02-27T18:48:05;19.60;52.50
12977;DHT22;6553;48.412;9.514;2023-02-27T18:50:31;19.60;52.30
12977;DHT22;6553;48.412;9.514;2023-02-27T18:52:57;19.60;52.30
12977;DHT22;6553;48.412;9.514;2023-02-27T18:55:23;19.70;52.40
12977;DHT22;6553;48.412;9.514;2023-02-27T18:57:49;19.60;52.30